sensor_id;sensor_type;location;lat;lon;timestamp;P1;durP1;ratioP1;P2;durP2;ratioP2
53253;SDS011;39148;53.332;6.922;2023-04-15T00:00:38;4.85;;;2.25;;
53253;SDS011;39148;53.332;6.922;2023-04-15T00:03:03;5.13;;;2.35;;
53253;SDS011;39148;53.332;6.922;2023-04-15T00:05:31;8.05;;;2.67;;
53253;SDS011;39148;53.332;6.922;2023-04-15T00:07:57;5.78;;;2.10;;
53253;SDS011;39148;53.332;6.922;2023-04-15T00:10:26;5.03;;;2.38;;
53253;SDS011;39148;53.332;6.922;2023-04-15T00:12:52;4.15;;;2.35;;
53253;SDS011;39148;53.332;6.922;2023-04-15T00:15:18;5.65;;;2.22;;
53253;SDS011;39148;53.332;6.922;2023-04-15T00:17:44;6.43;;;2.65;;
53253;SDS011;39148;53.332;6.922;2023-04-15T00:20:11;5.78;;;2.90;;
53253;SDS011;39148;53.332;6.922;2023-04-15T00:22:36;6.57;;;2.83;;
53253;SDS011;39148;53.332;6.922;2023-04-15T00:25:03;6.18;;;2.40;;
53253;SDS011;39148;53.332;6.922;2023-04-15T00:27:28;5.15;;;2.55;;
53253;SDS011;39148;53.332;6.922;2023-04-15T00:29:55;4.88;;;2.35;;
53253;SDS011;39148;53.332;6.922;2023-04-15T00:32:21;6.07;;;2.72;;
53253;SDS011;39148;53.332;6.922;2023-04-15T00:34:47;6.93;;;3.13;;
53253;SDS011;39148;53.332;6.922;2023-04-15T00:37:13;6.50;;;2.80;;
53253;SDS011;39148;53.332;6.922;2023-04-15T00:39:39;5.70;;;2.85;;
53253;SDS011;39148;53.332;6.922;2023-04-15T00:42:05;6.85;;;2.80;;
53253;SDS011;39148;53.332;6.922;2023-04-15T00:44:31;6.95;;;3.08;;
53253;SDS011;39148;53.332;6.922;2023-04-15T00:46:57;7.95;;;2.90;;
53253;SDS011;39148;53.332;6.922;2023-04-15T00:49:24;7.00;;;3.55;;
53253;SDS011;39148;53.332;6.922;2023-04-15T00:51:51;5.18;;;2.92;;
53253;SDS011;39148;53.332;6.922;2023-04-15T00:54:17;5.82;;;2.90;;
53253;SDS011;39148;53.332;6.922;2023-04-15T00:56:42;6.50;;;3.15;;
53253;SDS011;39148;53.332;6.922;2023-04-15T00:59:08;5.50;;;2.88;;
53253;SDS011;39148;53.332;6.922;2023-04-15T01:01:35;6.00;;;3.03;;
53253;SDS011;39148;53.332;6.922;2023-04-15T01:04:01;4.70;;;2.97;;
53253;SDS011;39148;53.332;6.922;2023-04-15T01:06:28;4.82;;;2.78;;
53253;SDS011;39148;53.332;6.922;2023-04-15T01:08:54;5.60;;;3.05;;
53253;SDS011;39148;53.332;6.922;2023-04-15T01:11:20;5.38;;;3.05;;
53253;SDS011;39148;53.332;6.922;2023-04-15T01:13:48;5.07;;;2.80;;
53253;SDS011;39148;53.332;6.922;2023-04-15T01:16:15;4.82;;;2.72;;
53253;SDS011;39148;53.332;6.922;2023-04-15T01:18:41;5.28;;;2.80;;
53253;SDS011;39148;53.332;6.922;2023-04-15T01:21:07;6.93;;;3.00;;
53253;SDS011;39148;53.332;6.922;2023-04-15T01:23:34;5.93;;;3.05;;
53253;SDS011;39148;53.332;6.922;2023-04-15T01:26:02;5.22;;;3.15;;
53253;SDS011;39148;53.332;6.922;2023-04-15T01:28:29;7.03;;;2.63;;
53253;SDS011;39148;53.332;6.922;2023-04-15T01:31:05;4.82;;;3.13;;
53253;SDS011;39148;53.332;6.922;2023-04-15T01:33:38;4.57;;;2.83;;
53253;SDS011;39148;53.332;6.922;2023-04-15T01:36:06;7.88;;;3.25;;
53253;SDS011;39148;53.332;6.922;2023-04-15T01:38:34;5.50;;;3.03;;
53253;SDS011;39148;53.332;6.922;2023-04-15T01:41:03;4.88;;;2.90;;
53253;SDS011;39148;53.332;6.922;2023-04-15T01:43:28;5.30;;;3.15;;
53253;SDS011;39148;53.332;6.922;2023-04-15T01:45:55;6.63;;;3.38;;
53253;SDS011;39148;53.332;6.922;2023-04-15T01:48:21;6.50;;;3.60;;
53253;SDS011;39148;53.332;6.922;2023-04-15T01:50:47;5.68;;;3.38;;
53253;SDS011;39148;53.332;6.922;2023-04-15T01:53:12;5.72;;;3.25;;
53253;SDS011;39148;53.332;6.922;2023-04-15T01:55:39;6.85;;;3.70;;
53253;SDS011;39148;53.332;6.922;2023-04-15T01:58:05;4.82;;;3.20;;
53253;SDS011;39148;53.332;6.922;2023-04-15T02:00:31;5.80;;;3.63;;
53253;SDS011;39148;53.332;6.922;2023-04-15T02:02:57;6.65;;;3.42;;
53253;SDS011;39148;53.332;6.922;2023-04-15T02:05:24;8.10;;;4.05;;
53253;SDS011;39148;53.332;6.922;2023-04-15T02:07:50;6.07;;;3.58;;
53253;SDS011;39148;53.332;6.922;2023-04-15T02:10:16;5.63;;;3.67;;
53253;SDS011;39148;53.332;6.922;2023-04-15T02:12:42;7.50;;;4.07;;
53253;SDS011;39148;53.332;6.922;2023-04-15T02:15:08;6.45;;;4.07;;
53253;SDS011;39148;53.332;6.922;2023-04-15T02:17:34;8.18;;;4.00;;
53253;SDS011;39148;53.332;6.922;2023-04-15T02:20:01;5.78;;;3.95;;
53253;SDS011;39148;53.332;6.922;2023-04-15T02:22:30;5.75;;;4.03;;
53253;SDS011;39148;53.332;6.922;2023-04-15T02:24:56;7.07;;;3.92;;
53253;SDS011;39148;53.332;6.922;2023-04-15T02:27:22;7.53;;;4.30;;
53253;SDS011;39148;53.332;6.922;2023-04-15T02:29:47;6.10;;;4.20;;
53253;SDS011;39148;53.332;6.922;2023-04-15T02:32:15;6.28;;;3.72;;
53253;SDS011;39148;53.332;6.922;2023-04-15T02:34:41;6.60;;;4.20;;
53253;SDS011;39148;53.332;6.922;2023-04-15T02:37:10;6.80;;;4.25;;
53253;SDS011;39148;53.332;6.922;2023-04-15T02:39:37;6.00;;;4.10;;
53253;SDS011;39148;53.332;6.922;2023-04-15T02:42:03;6.93;;;4.38;;
53253;SDS011;39148;53.332;6.922;2023-04-15T02:44:30;7.10;;;4.28;;
53253;SDS011;39148;53.332;6.922;2023-04-15T02:46:57;6.43;;;4.50;;
53253;SDS011;39148;53.332;6.922;2023-04-15T02:49:23;7.90;;;4.25;;
53253;SDS011;39148;53.332;6.922;2023-04-15T02:51:49;6.63;;;4.22;;
53253;SDS011;39148;53.332;6.922;2023-04-15T02:54:17;6.10;;;4.22;;
53253;SDS011;39148;53.332;6.922;2023-04-15T02:56:43;6.70;;;4.28;;
53253;SDS011;39148;53.332;6.922;2023-04-15T02:59:10;5.95;;;3.90;;
53253;SDS011;39148;53.332;6.922;2023-04-15T03:01:36;6.90;;;4.05;;
53253;SDS011;39148;53.332;6.922;2023-04-15T03:04:02;5.93;;;4.10;;
53253;SDS011;39148;53.332;6.922;2023-04-15T03:06:28;6.55;;;3.88;;
53253;SDS011;39148;53.332;6.922;2023-04-15T03:08:55;6.25;;;4.18;;
53253;SDS011;39148;53.332;6.922;2023-04-15T03:11:21;6.78;;;4.50;;
53253;SDS011;39148;53.332;6.922;2023-04-15T03:13:47;6.20;;;3.95;;
53253;SDS011;39148;53.332;6.922;2023-04-15T03:16:13;7.18;;;4.45;;
53253;SDS011;39148;53.332;6.922;2023-04-15T03:18:39;7.10;;;4.22;;
53253;SDS011;39148;53.332;6.922;2023-04-15T03:21:04;6.30;;;3.85;;
53253;SDS011;39148;53.332;6.922;2023-04-15T03:23:31;5.72;;;4.03;;
53253;SDS011;39148;53.332;6.922;2023-04-15T03:25:57;5.80;;;3.85;;
53253;SDS011;39148;53.332;6.922;2023-04-15T03:28:25;6.78;;;4.20;;
53253;SDS011;39148;53.332;6.922;2023-04-15T03:30:51;5.68;;;3.42;;
53253;SDS011;39148;53.332;6.922;2023-04-15T03:33:17;6.13;;;4.07;;
53253;SDS011;39148;53.332;6.922;2023-04-15T03:35:44;6.93;;;4.25;;
53253;SDS011;39148;53.332;6.922;2023-04-15T03:38:10;5.50;;;3.40;;
53253;SDS011;39148;53.332;6.922;2023-04-15T03:40:37;6.43;;;3.95;;
53253;SDS011;39148;53.332;6.922;2023-04-15T03:43:03;6.18;;;3.83;;
53253;SDS011;39148;53.332;6.922;2023-04-15T03:45:29;6.95;;;4.10;;
53253;SDS011;39148;53.332;6.922;2023-04-15T03:47:55;5.00;;;3.22;;
53253;SDS011;39148;53.332;6.922;2023-04-15T03:50:21;5.72;;;3.72;;
53253;SDS011;39148;53.332;6.922;2023-04-15T03:52:47;6.57;;;3.80;;
53253;SDS011;39148;53.332;6.922;2023-04-15T03:55:13;5.45;;;3.60;;
53253;SDS011;39148;53.332;6.922;2023-04-15T03:57:39;5.43;;;2.88;;
53253;SDS011;39148;53.332;6.922;2023-04-15T04:00:06;5.45;;;3.60;;
53253;SDS011;39148;53.332;6.922;2023-04-15T04:02:33;5.65;;;3.55;;
53253;SDS011;39148;53.332;6.922;2023-04-15T04:04:59;5.40;;;3.75;;
53253;SDS011;39148;53.332;6.922;2023-04-15T04:07:25;6.32;;;4.15;;
53253;SDS011;39148;53.332;6.922;2023-04-15T04:09:51;5.47;;;3.60;;
53253;SDS011;39148;53.332;6.922;2023-04-15T04:12:17;5.35;;;3.47;;
53253;SDS011;39148;53.332;6.922;2023-04-15T04:14:43;5.50;;;3.72;;
53253;SDS011;39148;53.332;6.922;2023-04-15T04:17:09;5.40;;;3.40;;
53253;SDS011;39148;53.332;6.922;2023-04-15T04:19:35;5.55;;;3.60;;
53253;SDS011;39148;53.332;6.922;2023-04-15T04:22:01;5.05;;;2.95;;
53253;SDS011;39148;53.332;6.922;2023-04-15T04:24:27;5.88;;;3.20;;
53253;SDS011;39148;53.332;6.922;2023-04-15T04:26:53;5.25;;;3.22;;
53253;SDS011;39148;53.332;6.922;2023-04-15T04:29:21;4.88;;;3.10;;
53253;SDS011;39148;53.332;6.922;2023-04-15T04:31:47;5.72;;;3.20;;
53253;SDS011;39148;53.332;6.922;2023-04-15T04:34:13;4.80;;;3.10;;
53253;SDS011;39148;53.332;6.922;2023-04-15T04:36:40;4.90;;;2.92;;
53253;SDS011;39148;53.332;6.922;2023-04-15T04:39:06;5.38;;;3.50;;
53253;SDS011;39148;53.332;6.922;2023-04-15T04:41:32;6.13;;;3.20;;
53253;SDS011;39148;53.332;6.922;2023-04-15T04:43:59;5.55;;;3.45;;
53253;SDS011;39148;53.332;6.922;2023-04-15T04:46:24;5.40;;;3.08;;
53253;SDS011;39148;53.332;6.922;2023-04-15T04:48:50;5.22;;;3.38;;
53253;SDS011;39148;53.332;6.922;2023-04-15T04:51:16;4.20;;;2.63;;
53253;SDS011;39148;53.332;6.922;2023-04-15T04:53:42;5.57;;;3.78;;
53253;SDS011;39148;53.332;6.922;2023-04-15T04:56:08;5.03;;;3.15;;
53253;SDS011;39148;53.332;6.922;2023-04-15T04:58:34;5.60;;;3.33;;
53253;SDS011;39148;53.332;6.922;2023-04-15T05:01:00;7.05;;;3.45;;
53253;SDS011;39148;53.332;6.922;2023-04-15T05:03:27;6.25;;;3.45;;
53253;SDS011;39148;53.332;6.922;2023-04-15T05:05:53;5.15;;;3.33;;
53253;SDS011;39148;53.332;6.922;2023-04-15T05:08:19;5.53;;;3.30;;
53253;SDS011;39148;53.332;6.922;2023-04-15T05:10:45;5.55;;;3.33;;
53253;SDS011;39148;53.332;6.922;2023-04-15T05:13:11;5.07;;;3.20;;
53253;SDS011;39148;53.332;6.922;2023-04-15T05:15:37;5.88;;;3.45;;
53253;SDS011;39148;53.332;6.922;2023-04-15T05:18:05;5.35;;;3.03;;
53253;SDS011;39148;53.332;6.922;2023-04-15T05:20:31;5.93;;;3.40;;
53253;SDS011;39148;53.332;6.922;2023-04-15T05:22:57;6.00;;;3.20;;
53253;SDS011;39148;53.332;6.922;2023-04-15T05:25:23;5.55;;;3.65;;
53253;SDS011;39148;53.332;6.922;2023-04-15T05:27:50;4.80;;;3.03;;
53253;SDS011;39148;53.332;6.922;2023-04-15T05:30:16;5.28;;;3.30;;
53253;SDS011;39148;53.332;6.922;2023-04-15T05:32:41;5.20;;;2.90;;
53253;SDS011;39148;53.332;6.922;2023-04-15T05:35:07;5.50;;;3.33;;
53253;SDS011;39148;53.332;6.922;2023-04-15T05:37:34;6.20;;;3.63;;
53253;SDS011;39148;53.332;6.922;2023-04-15T05:40:00;5.68;;;3.22;;
53253;SDS011;39148;53.332;6.922;2023-04-15T05:42:26;5.50;;;3.65;;
53253;SDS011;39148;53.332;6.922;2023-04-15T05:44:52;5.68;;;3.10;;
53253;SDS011;39148;53.332;6.922;2023-04-15T05:47:18;5.30;;;3.33;;
53253;SDS011;39148;53.332;6.922;2023-04-15T05:49:44;5.18;;;3.20;;
53253;SDS011;39148;53.332;6.922;2023-04-15T05:52:10;6.38;;;3.15;;
53253;SDS011;39148;53.332;6.922;2023-04-15T05:54:36;5.35;;;3.50;;
53253;SDS011;39148;53.332;6.922;2023-04-15T05:57:02;6.28;;;3.67;;
53253;SDS011;39148;53.332;6.922;2023-04-15T05:59:28;6.75;;;3.47;;
53253;SDS011;39148;53.332;6.922;2023-04-15T06:01:54;6.15;;;3.42;;
53253;SDS011;39148;53.332;6.922;2023-04-15T06:04:20;5.00;;;3.13;;
53253;SDS011;39148;53.332;6.922;2023-04-15T06:06:46;5.35;;;3.70;;
53253;SDS011;39148;53.332;6.922;2023-04-15T06:09:12;7.15;;;3.88;;
53253;SDS011;39148;53.332;6.922;2023-04-15T06:11:39;6.97;;;3.80;;
53253;SDS011;39148;53.332;6.922;2023-04-15T06:14:05;6.03;;;3.33;;
53253;SDS011;39148;53.332;6.922;2023-04-15T06:16:31;5.93;;;3.30;;
53253;SDS011;39148;53.332;6.922;2023-04-15T06:18:57;7.07;;;3.63;;
53253;SDS011;39148;53.332;6.922;2023-04-15T06:21:23;6.15;;;3.40;;
53253;SDS011;39148;53.332;6.922;2023-04-15T06:23:49;5.55;;;3.53;;
53253;SDS011;39148;53.332;6.922;2023-04-15T06:26:15;6.68;;;3.40;;
53253;SDS011;39148;53.332;6.922;2023-04-15T06:28:41;5.70;;;3.15;;
53253;SDS011;39148;53.332;6.922;2023-04-15T06:31:07;6.40;;;3.90;;
53253;SDS011;39148;53.332;6.922;2023-04-15T06:33:33;5.32;;;3.10;;
53253;SDS011;39148;53.332;6.922;2023-04-15T06:35:59;5.15;;;3.30;;
53253;SDS011;39148;53.332;6.922;2023-04-15T06:38:26;5.25;;;3.17;;
53253;SDS011;39148;53.332;6.922;2023-04-15T06:40:52;6.95;;;3.53;;
53253;SDS011;39148;53.332;6.922;2023-04-15T06:43:18;5.95;;;3.30;;
53253;SDS011;39148;53.332;6.922;2023-04-15T06:45:44;6.00;;;3.58;;
53253;SDS011;39148;53.332;6.922;2023-04-15T06:48:11;5.97;;;3.38;;
53253;SDS011;39148;53.332;6.922;2023-04-15T06:50:37;5.55;;;3.35;;
53253;SDS011;39148;53.332;6.922;2023-04-15T06:53:03;5.88;;;3.20;;
53253;SDS011;39148;53.332;6.922;2023-04-15T06:55:29;4.95;;;3.25;;
53253;SDS011;39148;53.332;6.922;2023-04-15T06:57:56;6.13;;;3.78;;
53253;SDS011;39148;53.332;6.922;2023-04-15T07:00:22;6.45;;;2.92;;
53253;SDS011;39148;53.332;6.922;2023-04-15T07:02:48;6.07;;;3.30;;
53253;SDS011;39148;53.332;6.922;2023-04-15T07:05:14;5.45;;;3.05;;
53253;SDS011;39148;53.332;6.922;2023-04-15T07:07:40;5.10;;;2.97;;
53253;SDS011;39148;53.332;6.922;2023-04-15T07:10:06;5.35;;;2.78;;
53253;SDS011;39148;53.332;6.922;2023-04-15T07:12:32;6.10;;;3.08;;
53253;SDS011;39148;53.332;6.922;2023-04-15T07:14:59;4.63;;;2.80;;
53253;SDS011;39148;53.332;6.922;2023-04-15T07:17:25;4.88;;;2.90;;
53253;SDS011;39148;53.332;6.922;2023-04-15T07:19:53;5.20;;;2.88;;
53253;SDS011;39148;53.332;6.922;2023-04-15T07:22:19;4.82;;;2.78;;
53253;SDS011;39148;53.332;6.922;2023-04-15T07:24:45;4.65;;;2.92;;
53253;SDS011;39148;53.332;6.922;2023-04-15T07:27:11;6.38;;;2.90;;
53253;SDS011;39148;53.332;6.922;2023-04-15T07:29:37;5.05;;;2.72;;
53253;SDS011;39148;53.332;6.922;2023-04-15T07:32:03;5.28;;;2.88;;
53253;SDS011;39148;53.332;6.922;2023-04-15T07:34:29;4.90;;;2.85;;
53253;SDS011;39148;53.332;6.922;2023-04-15T07:36:55;5.95;;;3.35;;
53253;SDS011;39148;53.332;6.922;2023-04-15T07:39:22;5.38;;;2.63;;
53253;SDS011;39148;53.332;6.922;2023-04-15T07:41:48;5.20;;;3.20;;
53253;SDS011;39148;53.332;6.922;2023-04-15T07:44:14;5.60;;;2.92;;
53253;SDS011;39148;53.332;6.922;2023-04-15T07:46:40;4.97;;;2.47;;
53253;SDS011;39148;53.332;6.922;2023-04-15T07:49:06;6.18;;;3.30;;
53253;SDS011;39148;53.332;6.922;2023-04-15T07:51:32;5.25;;;2.70;;
53253;SDS011;39148;53.332;6.922;2023-04-15T07:53:58;4.47;;;2.50;;
53253;SDS011;39148;53.332;6.922;2023-04-15T07:56:24;4.43;;;2.40;;
53253;SDS011;39148;53.332;6.922;2023-04-15T07:58:50;5.05;;;2.70;;
53253;SDS011;39148;53.332;6.922;2023-04-15T08:01:16;5.15;;;2.45;;
53253;SDS011;39148;53.332;6.922;2023-04-15T08:03:42;5.50;;;2.78;;
53253;SDS011;39148;53.332;6.922;2023-04-15T08:06:08;4.40;;;2.22;;
53253;SDS011;39148;53.332;6.922;2023-04-15T08:08:34;6.13;;;2.83;;
53253;SDS011;39148;53.332;6.922;2023-04-15T08:11:00;4.78;;;2.35;;
53253;SDS011;39148;53.332;6.922;2023-04-15T08:13:26;4.40;;;2.50;;
53253;SDS011;39148;53.332;6.922;2023-04-15T08:15:55;3.92;;;2.00;;
53253;SDS011;39148;53.332;6.922;2023-04-15T08:18:38;4.18;;;2.13;;
53253;SDS011;39148;53.332;6.922;2023-04-15T08:21:04;4.93;;;2.10;;
53253;SDS011;39148;53.332;6.922;2023-04-15T08:23:30;6.53;;;2.60;;
53253;SDS011;39148;53.332;6.922;2023-04-15T08:25:57;4.35;;;2.00;;
53253;SDS011;39148;53.332;6.922;2023-04-15T08:28:23;5.05;;;2.40;;
53253;SDS011;39148;53.332;6.922;2023-04-15T08:30:51;4.18;;;2.03;;
53253;SDS011;39148;53.332;6.922;2023-04-15T08:33:17;4.28;;;2.10;;
53253;SDS011;39148;53.332;6.922;2023-04-15T08:35:43;3.40;;;1.70;;
53253;SDS011;39148;53.332;6.922;2023-04-15T08:38:09;4.70;;;2.08;;
53253;SDS011;39148;53.332;6.922;2023-04-15T08:40:42;4.25;;;1.90;;
53253;SDS011;39148;53.332;6.922;2023-04-15T08:43:10;4.28;;;2.03;;
53253;SDS011;39148;53.332;6.922;2023-04-15T08:45:37;4.53;;;1.60;;
53253;SDS011;39148;53.332;6.922;2023-04-15T08:48:04;3.80;;;1.70;;
53253;SDS011;39148;53.332;6.922;2023-04-15T08:50:31;3.80;;;1.73;;
53253;SDS011;39148;53.332;6.922;2023-04-15T08:53:00;3.90;;;2.00;;
53253;SDS011;39148;53.332;6.922;2023-04-15T08:55:28;4.40;;;1.58;;
53253;SDS011;39148;53.332;6.922;2023-04-15T08:57:57;3.88;;;1.75;;
53253;SDS011;39148;53.332;6.922;2023-04-15T09:00:24;3.72;;;1.70;;
53253;SDS011;39148;53.332;6.922;2023-04-15T09:02:51;4.03;;;1.63;;
53253;SDS011;39148;53.332;6.922;2023-04-15T09:05:17;3.72;;;1.80;;
53253;SDS011;39148;53.332;6.922;2023-04-15T09:07:45;3.40;;;1.50;;
53253;SDS011;39148;53.332;6.922;2023-04-15T09:10:11;3.40;;;1.42;;
53253;SDS011;39148;53.332;6.922;2023-04-15T09:12:37;4.70;;;1.83;;
53253;SDS011;39148;53.332;6.922;2023-04-15T09:15:03;4.50;;;1.55;;
53253;SDS011;39148;53.332;6.922;2023-04-15T09:17:29;4.05;;;1.45;;
53253;SDS011;39148;53.332;6.922;2023-04-15T09:20:07;4.10;;;1.40;;
53253;SDS011;39148;53.332;6.922;2023-04-15T09:22:33;3.83;;;1.40;;
53253;SDS011;39148;53.332;6.922;2023-04-15T09:24:59;2.95;;;1.40;;
53253;SDS011;39148;53.332;6.922;2023-04-15T09:27:25;4.10;;;1.33;;
53253;SDS011;39148;53.332;6.922;2023-04-15T09:29:52;2.47;;;1.27;;
53253;SDS011;39148;53.332;6.922;2023-04-15T09:32:18;3.97;;;1.30;;
53253;SDS011;39148;53.332;6.922;2023-04-15T09:34:45;6.43;;;2.42;;
53253;SDS011;39148;53.332;6.922;2023-04-15T09:37:12;2.58;;;1.10;;
53253;SDS011;39148;53.332;6.922;2023-04-15T09:39:47;3.25;;;1.35;;
53253;SDS011;39148;53.332;6.922;2023-04-15T09:42:14;3.47;;;1.40;;
53253;SDS011;39148;53.332;6.922;2023-04-15T09:44:41;4.40;;;1.30;;
53253;SDS011;39148;53.332;6.922;2023-04-15T09:47:08;4.30;;;1.30;;
53253;SDS011;39148;53.332;6.922;2023-04-15T09:49:34;2.65;;;1.20;;
53253;SDS011;39148;53.332;6.922;2023-04-15T09:52:00;4.88;;;1.17;;
53253;SDS011;39148;53.332;6.922;2023-04-15T09:54:34;4.45;;;1.63;;
53253;SDS011;39148;53.332;6.922;2023-04-15T09:57:04;3.42;;;1.33;;
53253;SDS011;39148;53.332;6.922;2023-04-15T09:59:30;3.40;;;1.27;;
53253;SDS011;39148;53.332;6.922;2023-04-15T10:01:56;3.03;;;1.17;;
53253;SDS011;39148;53.332;6.922;2023-04-15T10:04:22;4.53;;;1.60;;
53253;SDS011;39148;53.332;6.922;2023-04-15T10:06:49;3.28;;;1.00;;
53253;SDS011;39148;53.332;6.922;2023-04-15T10:09:15;4.57;;;1.20;;
53253;SDS011;39148;53.332;6.922;2023-04-15T10:11:42;4.47;;;1.02;;
53253;SDS011;39148;53.332;6.922;2023-04-15T10:14:09;3.22;;;1.20;;
53253;SDS011;39148;53.332;6.922;2023-04-15T10:16:35;3.03;;;1.15;;
53253;SDS011;39148;53.332;6.922;2023-04-15T10:19:06;4.63;;;1.20;;
53253;SDS011;39148;53.332;6.922;2023-04-15T10:21:33;3.58;;;1.02;;
53253;SDS011;39148;53.332;6.922;2023-04-15T10:24:01;4.10;;;1.10;;
53253;SDS011;39148;53.332;6.922;2023-04-15T10:26:28;3.13;;;0.98;;
53253;SDS011;39148;53.332;6.922;2023-04-15T10:28:55;2.95;;;0.85;;
53253;SDS011;39148;53.332;6.922;2023-04-15T10:31:21;2.10;;;0.80;;
53253;SDS011;39148;53.332;6.922;2023-04-15T10:33:47;2.20;;;1.00;;
53253;SDS011;39148;53.332;6.922;2023-04-15T10:36:14;4.28;;;0.93;;
53253;SDS011;39148;53.332;6.922;2023-04-15T10:38:44;2.88;;;1.10;;
53253;SDS011;39148;53.332;6.922;2023-04-15T10:41:26;1.73;;;0.80;;
53253;SDS011;39148;53.332;6.922;2023-04-15T10:46:35;2.78;;;1.15;;
53253;SDS011;39148;53.332;6.922;2023-04-15T10:49:11;2.58;;;1.05;;
53253;SDS011;39148;53.332;6.922;2023-04-15T10:51:39;3.25;;;0.98;;
53253;SDS011;39148;53.332;6.922;2023-04-15T11:00:00;4.25;;;1.08;;
53253;SDS011;39148;53.332;6.922;2023-04-15T11:02:46;2.25;;;0.80;;
53253;SDS011;39148;53.332;6.922;2023-04-15T11:05:16;2.60;;;0.90;;
53253;SDS011;39148;53.332;6.922;2023-04-15T11:12:39;3.97;;;1.20;;
53253;SDS011;39148;53.332;6.922;2023-04-15T11:18:08;3.80;;;1.00;;
53253;SDS011;39148;53.332;6.922;2023-04-15T11:20:35;3.90;;;0.90;;
53253;SDS011;39148;53.332;6.922;2023-04-15T11:23:02;4.18;;;1.17;;
53253;SDS011;39148;53.332;6.922;2023-04-15T11:25:33;3.85;;;0.82;;
53253;SDS011;39148;53.332;6.922;2023-04-15T11:28:00;4.15;;;1.02;;
53253;SDS011;39148;53.332;6.922;2023-04-15T11:30:27;4.05;;;1.00;;
53253;SDS011;39148;53.332;6.922;2023-04-15T11:33:01;4.05;;;0.85;;
53253;SDS011;39148;53.332;6.922;2023-04-15T11:35:28;5.35;;;1.00;;
53253;SDS011;39148;53.332;6.922;2023-04-15T11:37:54;4.85;;;1.23;;
53253;SDS011;39148;53.332;6.922;2023-04-15T11:40:24;3.15;;;0.88;;
53253;SDS011;39148;53.332;6.922;2023-04-15T11:45:35;4.70;;;1.08;;
53253;SDS011;39148;53.332;6.922;2023-04-15T11:50:31;4.93;;;1.00;;
53253;SDS011;39148;53.332;6.922;2023-04-15T11:52:59;3.35;;;0.90;;
53253;SDS011;39148;53.332;6.922;2023-04-15T11:55:27;2.80;;;0.73;;
53253;SDS011;39148;53.332;6.922;2023-04-15T12:00:51;4.35;;;1.40;;
53253;SDS011;39148;53.332;6.922;2023-04-15T12:03:24;6.07;;;0.93;;
53253;SDS011;39148;53.332;6.922;2023-04-15T12:14:10;4.30;;;1.30;;
53253;SDS011;39148;53.332;6.922;2023-04-15T12:16:40;6.07;;;1.13;;
53253;SDS011;39148;53.332;6.922;2023-04-15T12:19:11;5.00;;;0.98;;
53253;SDS011;39148;53.332;6.922;2023-04-15T12:21:38;4.20;;;1.00;;
53253;SDS011;39148;53.332;6.922;2023-04-15T12:24:07;5.20;;;1.08;;
53253;SDS011;39148;53.332;6.922;2023-04-15T12:26:34;4.07;;;0.82;;
53253;SDS011;39148;53.332;6.922;2023-04-15T12:29:01;6.18;;;0.90;;
53253;SDS011;39148;53.332;6.922;2023-04-15T12:33:58;3.70;;;0.70;;
53253;SDS011;39148;53.332;6.922;2023-04-15T12:36:25;4.07;;;0.82;;
53253;SDS011;39148;53.332;6.922;2023-04-15T12:38:51;4.32;;;0.93;;
53253;SDS011;39148;53.332;6.922;2023-04-15T12:41:17;4.28;;;0.77;;
53253;SDS011;39148;53.332;6.922;2023-04-15T12:43:44;4.88;;;0.90;;
53253;SDS011;39148;53.332;6.922;2023-04-15T12:46:11;4.75;;;0.85;;
53253;SDS011;39148;53.332;6.922;2023-04-15T12:48:37;5.10;;;0.70;;
53253;SDS011;39148;53.332;6.922;2023-04-15T12:51:03;5.50;;;0.90;;
53253;SDS011;39148;53.332;6.922;2023-04-15T12:53:29;4.03;;;0.90;;
53253;SDS011;39148;53.332;6.922;2023-04-15T12:55:56;4.75;;;0.90;;
53253;SDS011;39148;53.332;6.922;2023-04-15T12:58:22;5.57;;;0.77;;
53253;SDS011;39148;53.332;6.922;2023-04-15T13:00:47;3.42;;;0.90;;
53253;SDS011;39148;53.332;6.922;2023-04-15T13:03:14;4.88;;;1.00;;
53253;SDS011;39148;53.332;6.922;2023-04-15T13:05:40;3.83;;;0.68;;
53253;SDS011;39148;53.332;6.922;2023-04-15T13:08:07;5.18;;;0.80;;
53253;SDS011;39148;53.332;6.922;2023-04-15T13:10:34;4.88;;;0.80;;
53253;SDS011;39148;53.332;6.922;2023-04-15T13:13:04;4.65;;;0.80;;
53253;SDS011;39148;53.332;6.922;2023-04-15T13:15:30;5.03;;;0.90;;
53253;SDS011;39148;53.332;6.922;2023-04-15T13:17:56;5.40;;;0.80;;
53253;SDS011;39148;53.332;6.922;2023-04-15T13:20:22;5.57;;;0.90;;
53253;SDS011;39148;53.332;6.922;2023-04-15T13:22:48;4.07;;;0.90;;
53253;SDS011;39148;53.332;6.922;2023-04-15T13:25:14;4.55;;;1.05;;
53253;SDS011;39148;53.332;6.922;2023-04-15T13:27:40;4.68;;;0.80;;
53253;SDS011;39148;53.332;6.922;2023-04-15T13:30:06;4.82;;;0.88;;
53253;SDS011;39148;53.332;6.922;2023-04-15T13:32:33;7.90;;;1.35;;
53253;SDS011;39148;53.332;6.922;2023-04-15T13:34:59;5.35;;;1.20;;
53253;SDS011;39148;53.332;6.922;2023-04-15T13:37:26;5.25;;;0.90;;
53253;SDS011;39148;53.332;6.922;2023-04-15T13:39:52;4.22;;;0.88;;
53253;SDS011;39148;53.332;6.922;2023-04-15T13:42:18;5.75;;;0.68;;
53253;SDS011;39148;53.332;6.922;2023-04-15T13:44:45;5.18;;;0.90;;
53253;SDS011;39148;53.332;6.922;2023-04-15T13:47:11;4.22;;;0.77;;
53253;SDS011;39148;53.332;6.922;2023-04-15T13:49:39;4.25;;;0.82;;
53253;SDS011;39148;53.332;6.922;2023-04-15T13:52:05;4.18;;;1.10;;
53253;SDS011;39148;53.332;6.922;2023-04-15T13:54:31;5.20;;;0.80;;
53253;SDS011;39148;53.332;6.922;2023-04-15T13:56:57;5.30;;;1.10;;
53253;SDS011;39148;53.332;6.922;2023-04-15T13:59:23;4.57;;;0.90;;
53253;SDS011;39148;53.332;6.922;2023-04-15T14:01:49;4.47;;;1.00;;
53253;SDS011;39148;53.332;6.922;2023-04-15T14:04:15;4.53;;;0.80;;
53253;SDS011;39148;53.332;6.922;2023-04-15T14:06:41;3.70;;;0.52;;
53253;SDS011;39148;53.332;6.922;2023-04-15T14:09:07;3.53;;;0.80;;
53253;SDS011;39148;53.332;6.922;2023-04-15T14:11:34;6.07;;;1.13;;
53253;SDS011;39148;53.332;6.922;2023-04-15T14:14:02;5.20;;;1.08;;
53253;SDS011;39148;53.332;6.922;2023-04-15T14:16:27;5.70;;;0.75;;
53253;SDS011;39148;53.332;6.922;2023-04-15T14:18:54;5.57;;;1.02;;
53253;SDS011;39148;53.332;6.922;2023-04-15T14:21:22;3.70;;;0.82;;
53253;SDS011;39148;53.332;6.922;2023-04-15T14:23:48;4.80;;;0.98;;
53253;SDS011;39148;53.332;6.922;2023-04-15T14:26:14;6.22;;;1.20;;
53253;SDS011;39148;53.332;6.922;2023-04-15T14:28:40;5.97;;;1.10;;
53253;SDS011;39148;53.332;6.922;2023-04-15T14:31:09;5.22;;;0.80;;
53253;SDS011;39148;53.332;6.922;2023-04-15T14:33:35;5.22;;;0.90;;
53253;SDS011;39148;53.332;6.922;2023-04-15T14:36:01;7.55;;;1.20;;
53253;SDS011;39148;53.332;6.922;2023-04-15T14:38:27;4.85;;;0.93;;
53253;SDS011;39148;53.332;6.922;2023-04-15T14:40:53;5.95;;;1.08;;
53253;SDS011;39148;53.332;6.922;2023-04-15T14:43:19;4.72;;;0.90;;
53253;SDS011;39148;53.332;6.922;2023-04-15T14:45:46;4.63;;;0.70;;
53253;SDS011;39148;53.332;6.922;2023-04-15T14:48:12;7.70;;;1.30;;
53253;SDS011;39148;53.332;6.922;2023-04-15T14:50:38;6.90;;;1.17;;
53253;SDS011;39148;53.332;6.922;2023-04-15T14:53:04;3.75;;;0.70;;
53253;SDS011;39148;53.332;6.922;2023-04-15T14:55:30;6.45;;;1.15;;
53253;SDS011;39148;53.332;6.922;2023-04-15T14:57:56;5.50;;;1.25;;
53253;SDS011;39148;53.332;6.922;2023-04-15T15:00:22;6.32;;;1.10;;
53253;SDS011;39148;53.332;6.922;2023-04-15T15:02:48;4.13;;;0.90;;
53253;SDS011;39148;53.332;6.922;2023-04-15T15:05:14;7.10;;;1.23;;
53253;SDS011;39148;53.332;6.922;2023-04-15T15:07:40;6.97;;;0.90;;
53253;SDS011;39148;53.332;6.922;2023-04-15T15:10:06;7.18;;;1.40;;
53253;SDS011;39148;53.332;6.922;2023-04-15T15:12:32;6.68;;;1.42;;
53253;SDS011;39148;53.332;6.922;2023-04-15T15:14:58;4.60;;;1.15;;
53253;SDS011;39148;53.332;6.922;2023-04-15T15:17:25;7.15;;;1.25;;
53253;SDS011;39148;53.332;6.922;2023-04-15T15:19:51;8.05;;;1.58;;